Terminal Aerodrome Forecast
Issued by NWS

Home | Current Version | Previous Version | Text Only | Print | Product List | Glossary On
Versions: 1 2 3 4 5 6 7 8 9 10 11 12 13 14 15 16 17 18 19
000
FTUS43 KBIS 192006 AAA
TAFMOT
TAF AMD
KMOT 192006Z 1920/2018 07008KT P6SM SCT008 SCT250
     FM192200 10008KT P6SM SCT012 SCT250
     FM200600 17004KT P6SM OVC080
     FM200900 26006KT 5SM -RA BR OVC015
     FM201500 27010KT P6SM BKN020
     FM201700 27013G21KT P6SM SCT070=

USA.gov is the U.S. government's official web portal to all federal, state and local government web resources and services.